Ora Direzione Vento Velocita' Vento Media Vento Raffica Max. Temperatura Wind Chill Pioggia Pressione
18:05:36.0337 °(NNW)1.75 Kts0.97 Kts12.8 Kts14.2 °C14.2 °C0.0 mm1032.4 Hpa
17:45:14.028 °(NNE)1.75 Kts0.97 Kts12.8 Kts15.4 °C15.4 °C0.0 mm1032.3 Hpa
17:24:55.027 °(NNE)4.67 Kts0.97 Kts12.8 Kts16.8 °C16.8 °C0.0 mm1032.2 Hpa
17:04:57.025 °(NNE)2.72 Kts1.75 Kts12.8 Kts18.4 °C18.4 °C0.0 mm1032.0 Hpa
16:44:22.00 °(N)3.69 Kts1.75 Kts12.8 Kts19.4 °C19.4 °C0.0 mm1031.9 Hpa
16:23:51.0358 °(N)6.42 Kts5.44 Kts12.8 Kts19.8 °C19.8 °C0.0 mm1031.8 Hpa
16:03:33.021 °(NNE)9.14 Kts9.14 Kts12.8 Kts20.3 °C20.3 °C0.0 mm1031.7 Hpa
15:45:13.0351 °(N)9.14 Kts5.44 Kts12.8 Kts20.7 °C20.7 °C0.0 mm1031.8 Hpa
15:24:55.07 °(N)6.42 Kts5.44 Kts12.8 Kts21.2 °C21.2 °C0.0 mm1031.8 Hpa
15:04:49.00 °(N)9.14 Kts7.39 Kts12.8 Kts21.1 °C21.1 °C0.0 mm1032.0 Hpa
14:44:23.083 °(E)8.36 Kts3.69 Kts12.8 Kts20.8 °C20.8 °C0.0 mm1032.2 Hpa
14:24:01.025 °(NNE)10.11 Kts7.39 Kts12.8 Kts20.7 °C20.7 °C0.0 mm1032.3 Hpa
14:03:47.025 °(NNE)11.08 Kts9.14 Kts12.8 Kts20.6 °C20.6 °C0.0 mm1032.4 Hpa
13:43:40.052 °(NE)11.08 Kts5.44 Kts11.1 Kts20.4 °C20.4 °C0.0 mm1032.5 Hpa
13:25:26.017 °(NNE)10.11 Kts8.36 Kts11.1 Kts20.1 °C20.1 °C0.0 mm1032.7 Hpa
13:05:03.0248 °(WSW)9.14 Kts3.69 Kts11.1 Kts17.3 °C17.3 °C0.0 mm1032.9 Hpa
12:44:50.0272 °(W)9.14 Kts5.44 Kts11.1 Kts16.4 °C16.3 °C0.0 mm1033.0 Hpa
12:24:22.0261 °(W)11.08 Kts8.36 Kts11.1 Kts15.8 °C15.0 °C0.0 mm1033.3 Hpa
12:03:27.0247 °(WSW)8.36 Kts8.36 Kts11.1 Kts15.8 °C15.0 °C0.0 mm1033.5 Hpa
11:42:45.0264 °(W)9.14 Kts5.44 Kts9.1 Kts16.0 °C15.8 °C0.0 mm1033.9 Hpa